sensor_id;sensor_type;location;lat;lon;timestamp;P1;durP1;ratioP1;P2;durP2;ratioP2
51838;SDS011;37886;53.174;6.368;2023-11-19T00:00:42;49.80;;;10.35;;
51838;SDS011;37886;53.174;6.368;2023-11-19T00:03:08;51.00;;;9.40;;
51838;SDS011;37886;53.174;6.368;2023-11-19T00:05:36;47.83;;;8.57;;
51838;SDS011;37886;53.174;6.368;2023-11-19T00:08:01;57.42;;;7.80;;
51838;SDS011;37886;53.174;6.368;2023-11-19T00:10:27;54.10;;;8.23;;
51838;SDS011;37886;53.174;6.368;2023-11-19T00:12:53;51.33;;;7.28;;
51838;SDS011;37886;53.174;6.368;2023-11-19T00:15:18;53.03;;;7.18;;
51838;SDS011;37886;53.174;6.368;2023-11-19T00:17:44;45.83;;;5.93;;
51838;SDS011;37886;53.174;6.368;2023-11-19T00:20:11;47.60;;;6.20;;
51838;SDS011;37886;53.174;6.368;2023-11-19T00:22:38;41.97;;;5.18;;
51838;SDS011;37886;53.174;6.368;2023-11-19T00:25:05;38.45;;;5.07;;
51838;SDS011;37886;53.174;6.368;2023-11-19T00:27:31;46.90;;;4.88;;
51838;SDS011;37886;53.174;6.368;2023-11-19T00:29:57;50.70;;;4.93;;
51838;SDS011;37886;53.174;6.368;2023-11-19T00:32:23;38.13;;;4.28;;
51838;SDS011;37886;53.174;6.368;2023-11-19T00:34:49;48.45;;;4.88;;
51838;SDS011;37886;53.174;6.368;2023-11-19T00:37:15;50.60;;;5.03;;
51838;SDS011;37886;53.174;6.368;2023-11-19T00:39:41;45.47;;;4.38;;
51838;SDS011;37886;53.174;6.368;2023-11-19T00:42:08;49.47;;;4.07;;
51838;SDS011;37886;53.174;6.368;2023-11-19T00:44:35;43.25;;;4.63;;
51838;SDS011;37886;53.174;6.368;2023-11-19T00:47:01;46.15;;;4.38;;
51838;SDS011;37886;53.174;6.368;2023-11-19T00:49:27;45.60;;;4.47;;
51838;SDS011;37886;53.174;6.368;2023-11-19T00:51:53;50.05;;;4.93;;
51838;SDS011;37886;53.174;6.368;2023-11-19T00:54:18;45.58;;;4.00;;
51838;SDS011;37886;53.174;6.368;2023-11-19T00:56:44;37.78;;;3.95;;
51838;SDS011;37886;53.174;6.368;2023-11-19T00:59:10;46.20;;;3.85;;
51838;SDS011;37886;53.174;6.368;2023-11-19T01:01:36;36.45;;;4.00;;
51838;SDS011;37886;53.174;6.368;2023-11-19T01:04:01;43.63;;;4.28;;
51838;SDS011;37886;53.174;6.368;2023-11-19T01:06:28;47.83;;;3.95;;
51838;SDS011;37886;53.174;6.368;2023-11-19T01:08:58;37.37;;;4.47;;
51838;SDS011;37886;53.174;6.368;2023-11-19T01:11:24;54.38;;;4.20;;
51838;SDS011;37886;53.174;6.368;2023-11-19T01:13:50;39.20;;;4.53;;
51838;SDS011;37886;53.174;6.368;2023-11-19T01:16:17;40.08;;;3.70;;
51838;SDS011;37886;53.174;6.368;2023-11-19T01:18:44;33.35;;;3.70;;
51838;SDS011;37886;53.174;6.368;2023-11-19T01:21:11;44.75;;;3.85;;
51838;SDS011;37886;53.174;6.368;2023-11-19T01:23:39;56.95;;;4.07;;
51838;SDS011;37886;53.174;6.368;2023-11-19T01:26:08;44.13;;;3.70;;
51838;SDS011;37886;53.174;6.368;2023-11-19T01:28:35;36.97;;;4.07;;
51838;SDS011;37886;53.174;6.368;2023-11-19T01:31:01;53.20;;;3.97;;
51838;SDS011;37886;53.174;6.368;2023-11-19T01:33:28;47.47;;;4.60;;
51838;SDS011;37886;53.174;6.368;2023-11-19T01:35:54;47.92;;;3.50;;
51838;SDS011;37886;53.174;6.368;2023-11-19T01:38:23;45.17;;;4.32;;
51838;SDS011;37886;53.174;6.368;2023-11-19T01:40:50;53.33;;;4.80;;
51838;SDS011;37886;53.174;6.368;2023-11-19T01:46:16;44.08;;;4.22;;
51838;SDS011;37886;53.174;6.368;2023-11-19T01:48:45;50.95;;;4.47;;
51838;SDS011;37886;53.174;6.368;2023-11-19T01:51:12;48.13;;;4.32;;
51838;SDS011;37886;53.174;6.368;2023-11-19T01:53:41;56.47;;;4.40;;
51838;SDS011;37886;53.174;6.368;2023-11-19T01:56:09;43.13;;;3.65;;
51838;SDS011;37886;53.174;6.368;2023-11-19T01:58:37;47.33;;;4.10;;
51838;SDS011;37886;53.174;6.368;2023-11-19T02:01:04;44.85;;;3.78;;
51838;SDS011;37886;53.174;6.368;2023-11-19T02:03:32;52.97;;;5.00;;
51838;SDS011;37886;53.174;6.368;2023-11-19T02:05:58;47.72;;;4.22;;
51838;SDS011;37886;53.174;6.368;2023-11-19T02:08:25;51.05;;;3.85;;
51838;SDS011;37886;53.174;6.368;2023-11-19T02:10:51;54.92;;;4.30;;
51838;SDS011;37886;53.174;6.368;2023-11-19T02:13:17;52.50;;;4.68;;
51838;SDS011;37886;53.174;6.368;2023-11-19T02:15:44;44.50;;;4.28;;
51838;SDS011;37886;53.174;6.368;2023-11-19T02:20:49;42.35;;;4.15;;
51838;SDS011;37886;53.174;6.368;2023-11-19T02:23:15;50.20;;;4.07;;
51838;SDS011;37886;53.174;6.368;2023-11-19T02:25:42;51.17;;;4.40;;
51838;SDS011;37886;53.174;6.368;2023-11-19T02:28:12;49.80;;;5.13;;
51838;SDS011;37886;53.174;6.368;2023-11-19T02:30:38;46.47;;;3.97;;
51838;SDS011;37886;53.174;6.368;2023-11-19T02:33:04;42.05;;;4.22;;
51838;SDS011;37886;53.174;6.368;2023-11-19T02:35:33;50.05;;;4.25;;
51838;SDS011;37886;53.174;6.368;2023-11-19T02:37:59;45.65;;;4.75;;
51838;SDS011;37886;53.174;6.368;2023-11-19T02:40:32;39.47;;;3.92;;
51838;SDS011;37886;53.174;6.368;2023-11-19T02:42:57;46.53;;;3.95;;
51838;SDS011;37886;53.174;6.368;2023-11-19T02:45:23;49.72;;;4.80;;
51838;SDS011;37886;53.174;6.368;2023-11-19T02:47:51;39.00;;;4.03;;
51838;SDS011;37886;53.174;6.368;2023-11-19T02:50:18;46.63;;;4.65;;
51838;SDS011;37886;53.174;6.368;2023-11-19T02:52:50;49.10;;;5.10;;
51838;SDS011;37886;53.174;6.368;2023-11-19T02:55:18;50.95;;;4.85;;
51838;SDS011;37886;53.174;6.368;2023-11-19T02:57:44;51.80;;;5.13;;
51838;SDS011;37886;53.174;6.368;2023-11-19T03:00:17;43.85;;;4.68;;
51838;SDS011;37886;53.174;6.368;2023-11-19T03:02:48;50.58;;;4.40;;
51838;SDS011;37886;53.174;6.368;2023-11-19T03:05:23;34.17;;;3.22;;
51838;SDS011;37886;53.174;6.368;2023-11-19T03:07:49;39.20;;;4.32;;
51838;SDS011;37886;53.174;6.368;2023-11-19T03:10:15;45.78;;;4.35;;
51838;SDS011;37886;53.174;6.368;2023-11-19T03:12:41;44.60;;;4.43;;
51838;SDS011;37886;53.174;6.368;2023-11-19T03:15:08;48.22;;;4.63;;
51838;SDS011;37886;53.174;6.368;2023-11-19T03:17:44;52.75;;;4.30;;
51838;SDS011;37886;53.174;6.368;2023-11-19T03:20:11;44.65;;;4.30;;
51838;SDS011;37886;53.174;6.368;2023-11-19T03:22:40;39.10;;;3.72;;
51838;SDS011;37886;53.174;6.368;2023-11-19T03:25:07;40.85;;;4.35;;
51838;SDS011;37886;53.174;6.368;2023-11-19T03:27:34;44.30;;;4.00;;
51838;SDS011;37886;53.174;6.368;2023-11-19T03:30:01;54.17;;;4.55;;
51838;SDS011;37886;53.174;6.368;2023-11-19T03:32:30;48.22;;;4.63;;
51838;SDS011;37886;53.174;6.368;2023-11-19T03:34:57;38.45;;;3.72;;
51838;SDS011;37886;53.174;6.368;2023-11-19T03:37:23;50.80;;;5.30;;
51838;SDS011;37886;53.174;6.368;2023-11-19T03:39:49;62.53;;;5.63;;
51838;SDS011;37886;53.174;6.368;2023-11-19T03:42:14;50.65;;;4.22;;
51838;SDS011;37886;53.174;6.368;2023-11-19T03:44:40;44.30;;;4.15;;
51838;SDS011;37886;53.174;6.368;2023-11-19T03:47:06;54.10;;;5.45;;
51838;SDS011;37886;53.174;6.368;2023-11-19T03:49:31;48.35;;;4.50;;
51838;SDS011;37886;53.174;6.368;2023-11-19T03:51:57;49.30;;;4.85;;
51838;SDS011;37886;53.174;6.368;2023-11-19T03:54:23;44.15;;;4.30;;
51838;SDS011;37886;53.174;6.368;2023-11-19T03:56:49;57.42;;;5.53;;
51838;SDS011;37886;53.174;6.368;2023-11-19T03:59:15;43.97;;;4.60;;
51838;SDS011;37886;53.174;6.368;2023-11-19T04:01:40;47.80;;;4.70;;
51838;SDS011;37886;53.174;6.368;2023-11-19T04:04:06;43.38;;;4.25;;
51838;SDS011;37886;53.174;6.368;2023-11-19T04:06:32;48.80;;;4.78;;
51838;SDS011;37886;53.174;6.368;2023-11-19T04:08:58;49.88;;;4.88;;
51838;SDS011;37886;53.174;6.368;2023-11-19T04:11:23;48.42;;;5.45;;
51838;SDS011;37886;53.174;6.368;2023-11-19T04:13:49;49.63;;;5.03;;
51838;SDS011;37886;53.174;6.368;2023-11-19T04:16:15;47.67;;;4.85;;
51838;SDS011;37886;53.174;6.368;2023-11-19T04:18:40;54.35;;;5.15;;
51838;SDS011;37886;53.174;6.368;2023-11-19T04:21:07;53.15;;;4.85;;
51838;SDS011;37886;53.174;6.368;2023-11-19T04:23:32;56.22;;;4.40;;
51838;SDS011;37886;53.174;6.368;2023-11-19T04:26:01;54.58;;;4.90;;
51838;SDS011;37886;53.174;6.368;2023-11-19T04:28:27;43.45;;;4.88;;
51838;SDS011;37886;53.174;6.368;2023-11-19T04:30:53;50.63;;;5.15;;
51838;SDS011;37886;53.174;6.368;2023-11-19T04:33:19;56.47;;;5.07;;
51838;SDS011;37886;53.174;6.368;2023-11-19T04:35:45;45.30;;;5.05;;
51838;SDS011;37886;53.174;6.368;2023-11-19T04:38:10;55.15;;;5.93;;
51838;SDS011;37886;53.174;6.368;2023-11-19T04:40:36;54.42;;;5.93;;
51838;SDS011;37886;53.174;6.368;2023-11-19T04:43:02;49.60;;;4.50;;
51838;SDS011;37886;53.174;6.368;2023-11-19T04:45:27;48.40;;;5.25;;
51838;SDS011;37886;53.174;6.368;2023-11-19T04:47:53;46.67;;;5.43;;
51838;SDS011;37886;53.174;6.368;2023-11-19T04:50:19;50.67;;;5.63;;
51838;SDS011;37886;53.174;6.368;2023-11-19T04:52:44;45.63;;;5.10;;
51838;SDS011;37886;53.174;6.368;2023-11-19T04:55:10;64.78;;;5.57;;
51838;SDS011;37886;53.174;6.368;2023-11-19T04:57:39;46.47;;;4.45;;
51838;SDS011;37886;53.174;6.368;2023-11-19T05:00:05;53.35;;;5.18;;
51838;SDS011;37886;53.174;6.368;2023-11-19T05:02:33;60.67;;;5.53;;
51838;SDS011;37886;53.174;6.368;2023-11-19T05:05:00;53.83;;;5.65;;
51838;SDS011;37886;53.174;6.368;2023-11-19T05:07:26;49.50;;;4.93;;
51838;SDS011;37886;53.174;6.368;2023-11-19T05:09:52;51.67;;;5.18;;
51838;SDS011;37886;53.174;6.368;2023-11-19T05:12:18;56.05;;;5.60;;
51838;SDS011;37886;53.174;6.368;2023-11-19T05:14:43;47.22;;;5.15;;
51838;SDS011;37886;53.174;6.368;2023-11-19T05:17:14;45.95;;;4.35;;
51838;SDS011;37886;53.174;6.368;2023-11-19T05:19:40;59.10;;;6.03;;
51838;SDS011;37886;53.174;6.368;2023-11-19T05:22:06;53.58;;;5.88;;
51838;SDS011;37886;53.174;6.368;2023-11-19T05:24:32;55.55;;;5.13;;
51838;SDS011;37886;53.174;6.368;2023-11-19T05:26:58;49.20;;;5.53;;
51838;SDS011;37886;53.174;6.368;2023-11-19T05:29:24;61.20;;;5.60;;
51838;SDS011;37886;53.174;6.368;2023-11-19T05:31:49;64.88;;;6.35;;
51838;SDS011;37886;53.174;6.368;2023-11-19T05:34:15;49.03;;;6.03;;
51838;SDS011;37886;53.174;6.368;2023-11-19T05:36:41;60.67;;;5.90;;
51838;SDS011;37886;53.174;6.368;2023-11-19T05:39:07;50.83;;;5.43;;
51838;SDS011;37886;53.174;6.368;2023-11-19T05:41:32;58.53;;;5.72;;
51838;SDS011;37886;53.174;6.368;2023-11-19T05:43:58;53.47;;;5.25;;
51838;SDS011;37886;53.174;6.368;2023-11-19T05:46:24;56.85;;;5.45;;
51838;SDS011;37886;53.174;6.368;2023-11-19T05:48:52;56.95;;;5.95;;
51838;SDS011;37886;53.174;6.368;2023-11-19T05:51:17;47.65;;;5.30;;
51838;SDS011;37886;53.174;6.368;2023-11-19T05:53:44;61.50;;;5.68;;
51838;SDS011;37886;53.174;6.368;2023-11-19T05:56:13;48.38;;;4.68;;
51838;SDS011;37886;53.174;6.368;2023-11-19T05:58:41;62.38;;;5.70;;
51838;SDS011;37886;53.174;6.368;2023-11-19T06:01:06;52.20;;;5.50;;
51838;SDS011;37886;53.174;6.368;2023-11-19T06:03:32;55.85;;;5.90;;
51838;SDS011;37886;53.174;6.368;2023-11-19T06:05:58;54.15;;;5.25;;
51838;SDS011;37886;53.174;6.368;2023-11-19T06:08:24;52.20;;;4.68;;
51838;SDS011;37886;53.174;6.368;2023-11-19T06:10:52;49.15;;;4.82;;
51838;SDS011;37886;53.174;6.368;2023-11-19T06:13:17;55.70;;;5.60;;
51838;SDS011;37886;53.174;6.368;2023-11-19T06:15:44;41.58;;;5.28;;
51838;SDS011;37886;53.174;6.368;2023-11-19T06:18:10;51.95;;;5.15;;
51838;SDS011;37886;53.174;6.368;2023-11-19T06:20:40;47.60;;;4.07;;
51838;SDS011;37886;53.174;6.368;2023-11-19T06:23:06;55.88;;;5.32;;
51838;SDS011;37886;53.174;6.368;2023-11-19T06:25:31;53.03;;;5.68;;
51838;SDS011;37886;53.174;6.368;2023-11-19T06:27:58;46.97;;;4.78;;
51838;SDS011;37886;53.174;6.368;2023-11-19T06:30:24;60.45;;;5.93;;
51838;SDS011;37886;53.174;6.368;2023-11-19T06:32:50;63.70;;;5.32;;
51838;SDS011;37886;53.174;6.368;2023-11-19T06:35:16;57.85;;;5.53;;
51838;SDS011;37886;53.174;6.368;2023-11-19T06:37:42;55.13;;;5.57;;
51838;SDS011;37886;53.174;6.368;2023-11-19T06:40:08;62.90;;;5.30;;
51838;SDS011;37886;53.174;6.368;2023-11-19T06:42:34;57.50;;;5.43;;
51838;SDS011;37886;53.174;6.368;2023-11-19T06:45:01;50.25;;;5.05;;
51838;SDS011;37886;53.174;6.368;2023-11-19T06:47:28;44.58;;;5.00;;
51838;SDS011;37886;53.174;6.368;2023-11-19T06:49:54;54.38;;;5.32;;
51838;SDS011;37886;53.174;6.368;2023-11-19T06:52:20;56.35;;;5.65;;
51838;SDS011;37886;53.174;6.368;2023-11-19T06:54:46;50.80;;;5.13;;
51838;SDS011;37886;53.174;6.368;2023-11-19T06:57:12;51.47;;;5.30;;
51838;SDS011;37886;53.174;6.368;2023-11-19T06:59:38;55.83;;;5.72;;
51838;SDS011;37886;53.174;6.368;2023-11-19T07:02:05;57.35;;;5.53;;
51838;SDS011;37886;53.174;6.368;2023-11-19T07:04:31;65.47;;;5.35;;
51838;SDS011;37886;53.174;6.368;2023-11-19T07:06:58;54.17;;;5.90;;
51838;SDS011;37886;53.174;6.368;2023-11-19T07:09:25;58.50;;;5.22;;
51838;SDS011;37886;53.174;6.368;2023-11-19T07:11:51;44.22;;;5.03;;
51838;SDS011;37886;53.174;6.368;2023-11-19T07:14:20;53.92;;;5.38;;
51838;SDS011;37886;53.174;6.368;2023-11-19T07:16:46;58.80;;;6.30;;
51838;SDS011;37886;53.174;6.368;2023-11-19T07:19:12;61.70;;;5.93;;
51838;SDS011;37886;53.174;6.368;2023-11-19T07:21:40;53.65;;;5.05;;
51838;SDS011;37886;53.174;6.368;2023-11-19T07:24:09;51.35;;;6.03;;
51838;SDS011;37886;53.174;6.368;2023-11-19T07:26:41;47.28;;;4.95;;
51838;SDS011;37886;53.174;6.368;2023-11-19T07:29:12;59.45;;;5.50;;
51838;SDS011;37886;53.174;6.368;2023-11-19T07:31:38;54.78;;;5.53;;
51838;SDS011;37886;53.174;6.368;2023-11-19T07:34:04;60.03;;;6.18;;
51838;SDS011;37886;53.174;6.368;2023-11-19T07:36:31;61.25;;;6.53;;
51838;SDS011;37886;53.174;6.368;2023-11-19T07:38:57;61.80;;;5.45;;
51838;SDS011;37886;53.174;6.368;2023-11-19T07:41:23;52.05;;;5.60;;
51838;SDS011;37886;53.174;6.368;2023-11-19T07:43:50;50.65;;;4.78;;
51838;SDS011;37886;53.174;6.368;2023-11-19T07:46:17;51.42;;;4.90;;
51838;SDS011;37886;53.174;6.368;2023-11-19T07:48:45;62.10;;;5.18;;
51838;SDS011;37886;53.174;6.368;2023-11-19T07:51:12;49.42;;;4.95;;
51838;SDS011;37886;53.174;6.368;2023-11-19T07:53:38;49.28;;;4.70;;
51838;SDS011;37886;53.174;6.368;2023-11-19T07:56:05;44.42;;;4.55;;
51838;SDS011;37886;53.174;6.368;2023-11-19T07:58:32;54.53;;;5.13;;
51838;SDS011;37886;53.174;6.368;2023-11-19T08:00:58;53.03;;;5.15;;
51838;SDS011;37886;53.174;6.368;2023-11-19T08:03:23;52.42;;;5.28;;
51838;SDS011;37886;53.174;6.368;2023-11-19T08:05:49;51.65;;;5.68;;
51838;SDS011;37886;53.174;6.368;2023-11-19T08:08:15;53.92;;;5.47;;
51838;SDS011;37886;53.174;6.368;2023-11-19T08:10:42;47.65;;;4.72;;
51838;SDS011;37886;53.174;6.368;2023-11-19T08:15:38;40.15;;;4.25;;
51838;SDS011;37886;53.174;6.368;2023-11-19T08:18:04;39.80;;;4.55;;
51838;SDS011;37886;53.174;6.368;2023-11-19T08:20:30;42.92;;;4.55;;
51838;SDS011;37886;53.174;6.368;2023-11-19T08:22:55;53.55;;;4.30;;
51838;SDS011;37886;53.174;6.368;2023-11-19T08:25:21;33.92;;;4.03;;
51838;SDS011;37886;53.174;6.368;2023-11-19T08:27:47;39.78;;;4.55;;
51838;SDS011;37886;53.174;6.368;2023-11-19T08:30:13;53.28;;;4.45;;
51838;SDS011;37886;53.174;6.368;2023-11-19T08:32:39;48.75;;;3.80;;
51838;SDS011;37886;53.174;6.368;2023-11-19T08:35:04;35.75;;;3.63;;
51838;SDS011;37886;53.174;6.368;2023-11-19T08:37:30;46.88;;;4.45;;
51838;SDS011;37886;53.174;6.368;2023-11-19T08:39:57;34.00;;;3.85;;
51838;SDS011;37886;53.174;6.368;2023-11-19T08:42:23;41.60;;;3.58;;
51838;SDS011;37886;53.174;6.368;2023-11-19T08:44:49;39.08;;;3.92;;
51838;SDS011;37886;53.174;6.368;2023-11-19T08:47:16;47.70;;;4.30;;
51838;SDS011;37886;53.174;6.368;2023-11-19T08:49:43;42.10;;;3.90;;
51838;SDS011;37886;53.174;6.368;2023-11-19T08:52:09;55.97;;;5.15;;
51838;SDS011;37886;53.174;6.368;2023-11-19T08:54:36;57.08;;;5.07;;
51838;SDS011;37886;53.174;6.368;2023-11-19T08:57:02;59.10;;;4.45;;
51838;SDS011;37886;53.174;6.368;2023-11-19T08:59:29;52.92;;;4.95;;
51838;SDS011;37886;53.174;6.368;2023-11-19T09:01:55;54.47;;;5.15;;
51838;SDS011;37886;53.174;6.368;2023-11-19T09:04:20;54.20;;;4.68;;
51838;SDS011;37886;53.174;6.368;2023-11-19T09:06:47;52.47;;;4.45;;
51838;SDS011;37886;53.174;6.368;2023-11-19T09:09:14;43.17;;;4.65;;
51838;SDS011;37886;53.174;6.368;2023-11-19T09:11:40;63.22;;;5.68;;
51838;SDS011;37886;53.174;6.368;2023-11-19T09:14:06;54.83;;;4.70;;
51838;SDS011;37886;53.174;6.368;2023-11-19T09:16:31;48.13;;;4.97;;
51838;SDS011;37886;53.174;6.368;2023-11-19T09:18:57;46.63;;;4.65;;
51838;SDS011;37886;53.174;6.368;2023-11-19T09:21:24;45.58;;;4.70;;
51838;SDS011;37886;53.174;6.368;2023-11-19T09:23:51;53.95;;;5.55;;
51838;SDS011;37886;53.174;6.368;2023-11-19T09:26:18;56.53;;;5.40;;
51838;SDS011;37886;53.174;6.368;2023-11-19T09:28:43;68.25;;;5.07;;
51838;SDS011;37886;53.174;6.368;2023-11-19T09:31:16;40.83;;;5.10;;
51838;SDS011;37886;53.174;6.368;2023-11-19T09:33:42;43.53;;;4.90;;
51838;SDS011;37886;53.174;6.368;2023-11-19T09:36:08;58.95;;;5.47;;
51838;SDS011;37886;53.174;6.368;2023-11-19T09:38:36;47.45;;;4.80;;
51838;SDS011;37886;53.174;6.368;2023-11-19T09:41:07;70.15;;;5.57;;
51838;SDS011;37886;53.174;6.368;2023-11-19T09:43:37;57.65;;;5.57;;
51838;SDS011;37886;53.174;6.368;2023-11-19T09:46:08;55.00;;;4.97;;
51838;SDS011;37886;53.174;6.368;2023-11-19T09:48:37;46.10;;;4.72;;
51838;SDS011;37886;53.174;6.368;2023-11-19T09:51:06;49.35;;;5.03;;
51838;SDS011;37886;53.174;6.368;2023-11-19T09:53:33;53.60;;;4.70;;
51838;SDS011;37886;53.174;6.368;2023-11-19T09:56:01;51.13;;;4.22;;
51838;SDS011;37886;53.174;6.368;2023-11-19T09:58:31;37.45;;;4.65;;
51838;SDS011;37886;53.174;6.368;2023-11-19T10:00:58;56.97;;;5.40;;
51838;SDS011;37886;53.174;6.368;2023-11-19T10:03:24;45.60;;;5.20;;
51838;SDS011;37886;53.174;6.368;2023-11-19T10:05:56;50.72;;;5.13;;
51838;SDS011;37886;53.174;6.368;2023-11-19T10:08:23;48.28;;;4.43;;
51838;SDS011;37886;53.174;6.368;2023-11-19T10:10:48;53.20;;;5.22;;
51838;SDS011;37886;53.174;6.368;2023-11-19T10:13:14;50.83;;;4.65;;
51838;SDS011;37886;53.174;6.368;2023-11-19T10:15:40;44.00;;;4.32;;
51838;SDS011;37886;53.174;6.368;2023-11-19T10:18:06;52.67;;;4.65;;
51838;SDS011;37886;53.174;6.368;2023-11-19T10:20:35;51.15;;;5.03;;
51838;SDS011;37886;53.174;6.368;2023-11-19T10:23:02;54.00;;;5.45;;
51838;SDS011;37886;53.174;6.368;2023-11-19T10:25:28;46.00;;;5.25;;
51838;SDS011;37886;53.174;6.368;2023-11-19T10:27:55;46.67;;;4.88;;
51838;SDS011;37886;53.174;6.368;2023-11-19T10:30:22;44.75;;;5.05;;
51838;SDS011;37886;53.174;6.368;2023-11-19T10:35:34;38.70;;;4.40;;
51838;SDS011;37886;53.174;6.368;2023-11-19T10:38:14;49.08;;;4.43;;
51838;SDS011;37886;53.174;6.368;2023-11-19T10:40:41;41.58;;;4.47;;
51838;SDS011;37886;53.174;6.368;2023-11-19T10:43:07;50.03;;;4.25;;
51838;SDS011;37886;53.174;6.368;2023-11-19T10:45:33;53.35;;;5.38;;
51838;SDS011;37886;53.174;6.368;2023-11-19T10:48:03;56.15;;;4.55;;
51838;SDS011;37886;53.174;6.368;2023-11-19T10:50:33;44.77;;;4.57;;
51838;SDS011;37886;53.174;6.368;2023-11-19T10:52:59;44.83;;;4.63;;
51838;SDS011;37886;53.174;6.368;2023-11-19T10:55:29;44.55;;;3.95;;
51838;SDS011;37886;53.174;6.368;2023-11-19T10:58:03;48.67;;;4.22;;
51838;SDS011;37886;53.174;6.368;2023-11-19T11:01:18;40.13;;;4.15;;
51838;SDS011;37886;53.174;6.368;2023-11-19T11:03:29;43.20;;;4.40;;
51838;SDS011;37886;53.174;6.368;2023-11-19T11:06:00;40.95;;;4.55;;
51838;SDS011;37886;53.174;6.368;2023-11-19T11:08:29;47.75;;;3.88;;
51838;SDS011;37886;53.174;6.368;2023-11-19T11:10:56;40.58;;;4.35;;
51838;SDS011;37886;53.174;6.368;2023-11-19T11:13:26;42.75;;;4.32;;
51838;SDS011;37886;53.174;6.368;2023-11-19T11:15:53;36.17;;;3.85;;
51838;SDS011;37886;53.174;6.368;2023-11-19T11:18:23;45.88;;;4.55;;
51838;SDS011;37886;53.174;6.368;2023-11-19T11:20:51;43.30;;;3.95;;
51838;SDS011;37886;53.174;6.368;2023-11-19T11:34:29;34.47;;;4.10;;
51838;SDS011;37886;53.174;6.368;2023-11-19T11:39:50;50.83;;;4.90;;
51838;SDS011;37886;53.174;6.368;2023-11-19T11:45:06;48.90;;;4.30;;
51838;SDS011;37886;53.174;6.368;2023-11-19T11:50:18;28.77;;;3.58;;
51838;SDS011;37886;53.174;6.368;2023-11-19T11:57:59;51.13;;;4.85;;
51838;SDS011;37886;53.174;6.368;2023-11-19T12:00:37;48.72;;;4.40;;
51838;SDS011;37886;53.174;6.368;2023-11-19T12:03:05;38.72;;;4.72;;
51838;SDS011;37886;53.174;6.368;2023-11-19T12:05:32;50.55;;;4.97;;
51838;SDS011;37886;53.174;6.368;2023-11-19T12:08:02;40.72;;;4.35;;
51838;SDS011;37886;53.174;6.368;2023-11-19T12:10:32;49.28;;;4.80;;
51838;SDS011;37886;53.174;6.368;2023-11-19T12:13:03;49.38;;;5.03;;
51838;SDS011;37886;53.174;6.368;2023-11-19T12:15:32;45.63;;;4.53;;
51838;SDS011;37886;53.174;6.368;2023-11-19T12:17:58;39.40;;;4.22;;
51838;SDS011;37886;53.174;6.368;2023-11-19T12:20:24;41.72;;;3.90;;
51838;SDS011;37886;53.174;6.368;2023-11-19T12:22:52;41.88;;;4.70;;
51838;SDS011;37886;53.174;6.368;2023-11-19T12:25:18;41.60;;;3.90;;
51838;SDS011;37886;53.174;6.368;2023-11-19T12:27:49;47.83;;;4.77;;
51838;SDS011;37886;53.174;6.368;2023-11-19T12:30:22;49.33;;;4.03;;
51838;SDS011;37886;53.174;6.368;2023-11-19T12:32:49;54.83;;;4.20;;
51838;SDS011;37886;53.174;6.368;2023-11-19T12:35:15;36.42;;;3.47;;
51838;SDS011;37886;53.174;6.368;2023-11-19T12:37:44;40.88;;;4.35;;
51838;SDS011;37886;53.174;6.368;2023-11-19T12:40:18;40.92;;;3.83;;
51838;SDS011;37886;53.174;6.368;2023-11-19T12:42:46;47.13;;;4.75;;
51838;SDS011;37886;53.174;6.368;2023-11-19T12:45:13;47.85;;;4.32;;
51838;SDS011;37886;53.174;6.368;2023-11-19T12:47:41;46.50;;;4.93;;
51838;SDS011;37886;53.174;6.368;2023-11-19T12:50:08;45.83;;;4.55;;
51838;SDS011;37886;53.174;6.368;2023-11-19T12:52:35;40.50;;;4.70;;
51838;SDS011;37886;53.174;6.368;2023-11-19T12:55:02;41.05;;;4.15;;
51838;SDS011;37886;53.174;6.368;2023-11-19T12:57:49;39.80;;;3.55;;
51838;SDS011;37886;53.174;6.368;2023-11-19T13:00:18;33.97;;;3.78;;
51838;SDS011;37886;53.174;6.368;2023-11-19T13:05:29;50.35;;;4.32;;
51838;SDS011;37886;53.174;6.368;2023-11-19T13:08:04;36.90;;;4.05;;
51838;SDS011;37886;53.174;6.368;2023-11-19T13:10:32;35.00;;;3.55;;
51838;SDS011;37886;53.174;6.368;2023-11-19T13:13:02;41.42;;;4.38;;
51838;SDS011;37886;53.174;6.368;2023-11-19T13:15:33;33.80;;;3.35;;
51838;SDS011;37886;53.174;6.368;2023-11-19T13:17:59;33.75;;;4.03;;
51838;SDS011;37886;53.174;6.368;2023-11-19T13:20:25;46.45;;;4.95;;
51838;SDS011;37886;53.174;6.368;2023-11-19T13:22:58;29.50;;;3.70;;
51838;SDS011;37886;53.174;6.368;2023-11-19T13:25:33;41.47;;;3.42;;
51838;SDS011;37886;53.174;6.368;2023-11-19T13:27:59;40.08;;;4.00;;
51838;SDS011;37886;53.174;6.368;2023-11-19T13:30:25;37.35;;;3.97;;
51838;SDS011;37886;53.174;6.368;2023-11-19T13:32:51;34.28;;;3.60;;
51838;SDS011;37886;53.174;6.368;2023-11-19T13:35:19;36.72;;;3.95;;
51838;SDS011;37886;53.174;6.368;2023-11-19T13:37:45;41.22;;;4.00;;
51838;SDS011;37886;53.174;6.368;2023-11-19T13:40:11;40.42;;;4.40;;
51838;SDS011;37886;53.174;6.368;2023-11-19T13:42:41;43.72;;;3.75;;
51838;SDS011;37886;53.174;6.368;2023-11-19T13:45:11;38.10;;;4.40;;
51838;SDS011;37886;53.174;6.368;2023-11-19T13:47:38;31.75;;;3.65;;
51838;SDS011;37886;53.174;6.368;2023-11-19T13:50:09;40.13;;;4.32;;
51838;SDS011;37886;53.174;6.368;2023-11-19T13:52:40;36.60;;;4.18;;
51838;SDS011;37886;53.174;6.368;2023-11-19T13:55:08;47.28;;;4.22;;
51838;SDS011;37886;53.174;6.368;2023-11-19T13:57:35;33.67;;;3.95;;
51838;SDS011;37886;53.174;6.368;2023-11-19T14:00:02;37.33;;;3.75;;
51838;SDS011;37886;53.174;6.368;2023-11-19T14:02:31;36.83;;;4.30;;
51838;SDS011;37886;53.174;6.368;2023-11-19T14:05:00;36.90;;;3.97;;
51838;SDS011;37886;53.174;6.368;2023-11-19T14:07:26;39.33;;;4.38;;
51838;SDS011;37886;53.174;6.368;2023-11-19T14:09:53;37.50;;;4.15;;
51838;SDS011;37886;53.174;6.368;2023-11-19T14:12:19;43.08;;;3.95;;
51838;SDS011;37886;53.174;6.368;2023-11-19T14:14:45;35.63;;;3.95;;
51838;SDS011;37886;53.174;6.368;2023-11-19T14:17:11;42.75;;;3.80;;
51838;SDS011;37886;53.174;6.368;2023-11-19T14:19:37;37.08;;;3.80;;
51838;SDS011;37886;53.174;6.368;2023-11-19T14:22:04;38.28;;;3.70;;
51838;SDS011;37886;53.174;6.368;2023-11-19T14:24:30;36.53;;;4.60;;
51838;SDS011;37886;53.174;6.368;2023-11-19T14:26:56;40.70;;;5.30;;
51838;SDS011;37886;53.174;6.368;2023-11-19T14:29:24;46.03;;;4.15;;
51838;SDS011;37886;53.174;6.368;2023-11-19T14:34:20;53.15;;;4.68;;
51838;SDS011;37886;53.174;6.368;2023-11-19T14:36:47;41.67;;;4.22;;
51838;SDS011;37886;53.174;6.368;2023-11-19T14:39:13;44.53;;;4.57;;
51838;SDS011;37886;53.174;6.368;2023-11-19T14:41:39;40.95;;;3.90;;
51838;SDS011;37886;53.174;6.368;2023-11-19T14:44:05;39.85;;;4.40;;
51838;SDS011;37886;53.174;6.368;2023-11-19T14:46:31;33.03;;;4.22;;
51838;SDS011;37886;53.174;6.368;2023-11-19T14:48:56;42.20;;;3.97;;
51838;SDS011;37886;53.174;6.368;2023-11-19T14:51:22;42.25;;;4.63;;
51838;SDS011;37886;53.174;6.368;2023-11-19T14:53:48;49.08;;;4.85;;
51838;SDS011;37886;53.174;6.368;2023-11-19T14:56:14;33.55;;;3.97;;
51838;SDS011;37886;53.174;6.368;2023-11-19T14:58:40;35.83;;;3.63;;
51838;SDS011;37886;53.174;6.368;2023-11-19T15:01:05;37.97;;;4.18;;
51838;SDS011;37886;53.174;6.368;2023-11-19T15:03:32;48.42;;;4.97;;
51838;SDS011;37886;53.174;6.368;2023-11-19T15:05:58;39.70;;;3.88;;
51838;SDS011;37886;53.174;6.368;2023-11-19T15:08:24;45.20;;;3.78;;
51838;SDS011;37886;53.174;6.368;2023-11-19T15:10:50;40.95;;;4.18;;
51838;SDS011;37886;53.174;6.368;2023-11-19T15:13:16;36.95;;;3.72;;